createdAt,value
2023-02-27T00:00:53.738Z,75.04
2023-02-27T00:01:53.757Z,74.73
2023-02-27T00:02:53.850Z,74.69
2023-02-27T00:03:53.718Z,74.69
2023-02-27T00:04:53.709Z,74.73
2023-02-27T00:05:53.704Z,74.83
2023-02-27T00:06:53.712Z,75.60
2023-02-27T00:07:53.711Z,74.87
2023-02-27T00:08:53.730Z,76.43
2023-02-27T00:09:53.676Z,74.87
2023-02-27T00:10:53.703Z,75.35
2023-02-27T00:11:53.689Z,75.35
2023-02-27T00:12:53.721Z,75.56
2023-02-27T00:13:53.652Z,75.04
2023-02-27T00:14:53.655Z,75.35
2023-02-27T00:15:53.664Z,75.11
2023-02-27T00:16:53.662Z,74.20
2023-02-27T00:17:53.642Z,74.48
2023-02-27T00:18:53.634Z,74.38
2023-02-27T00:19:53.644Z,74.20
2023-02-27T00:20:53.633Z,75.25
2023-02-27T00:21:53.666Z,74.83
2023-02-27T00:22:53.609Z,75.67
2023-02-27T00:23:53.638Z,74.62
2023-02-27T00:24:53.667Z,74.80
2023-02-27T00:25:53.598Z,75.21
2023-02-27T00:26:53.605Z,74.90
2023-02-27T00:27:53.609Z,75.35
2023-02-27T00:28:53.582Z,75.88
2023-02-27T00:29:53.626Z,75.04
2023-02-27T00:30:53.673Z,74.93
2023-02-27T00:31:53.635Z,76.30
2023-02-27T00:32:53.595Z,77.14
2023-02-27T00:33:53.571Z,77.17
2023-02-27T00:34:53.611Z,77.38
2023-02-27T00:35:53.538Z,77.48
2023-02-27T00:36:53.541Z,77.17
2023-02-27T00:37:53.509Z,76.96
2023-02-27T00:38:53.541Z,76.43
2023-02-27T00:39:53.512Z,76.33
2023-02-27T00:40:53.538Z,76.12
2023-02-27T00:41:53.528Z,75.15
2023-02-27T00:42:53.500Z,75.29
2023-02-27T00:43:53.518Z,76.23
2023-02-27T00:44:53.496Z,77.17
2023-02-27T00:45:53.500Z,77.17
2023-02-27T00:46:53.655Z,76.93
2023-02-27T00:47:53.509Z,76.43
2023-02-27T00:48:53.446Z,76.43
2023-02-27T00:49:53.473Z,76.40
2023-02-27T00:50:53.457Z,76.12
2023-02-27T00:51:53.436Z,76.65
2023-02-27T00:52:53.459Z,77.03
2023-02-27T00:53:53.453Z,76.09
2023-02-27T00:54:53.461Z,75.98
2023-02-27T00:55:53.425Z,75.04
2023-02-27T00:56:54.445Z,75.04
2023-02-27T00:57:53.479Z,75.88
2023-02-27T00:58:53.434Z,76.09
2023-02-27T00:59:53.424Z,75.98
2023-02-27T01:00:53.524Z,76.51
2023-02-27T01:01:53.468Z,76.51
2023-02-27T01:02:53.457Z,76.61
2023-02-27T01:03:53.414Z,77.03
2023-02-27T01:04:53.425Z,77.03
2023-02-27T01:05:53.384Z,77.17
2023-02-27T01:06:54.502Z,77.28
2023-02-27T01:07:53.405Z,77.07
2023-02-27T01:08:53.379Z,76.65
2023-02-27T01:09:53.392Z,77.03
2023-02-27T01:10:53.389Z,76.23
2023-02-27T01:11:53.367Z,76.30
2023-02-27T01:12:53.361Z,75.88
2023-02-27T01:13:53.392Z,76.30
2023-02-27T01:14:53.346Z,77.07
2023-02-27T01:15:53.350Z,76.86
2023-02-27T01:16:53.312Z,76.19
2023-02-27T01:17:53.362Z,76.09
2023-02-27T01:18:53.318Z,75.67
2023-02-27T01:19:53.332Z,75.25
2023-02-27T01:20:53.330Z,75.35
2023-02-27T01:21:53.303Z,75.63
2023-02-27T01:22:53.284Z,75.43
2023-02-27T01:23:53.278Z,75.21
2023-02-27T01:24:53.313Z,75.98
2023-02-27T01:25:54.287Z,75.25
2023-02-27T01:26:53.271Z,74.90
2023-02-27T01:27:53.266Z,74.69
2023-02-27T01:28:53.286Z,75.32
2023-02-27T01:29:53.296Z,75.53
2023-02-27T01:30:53.330Z,74.76
2023-02-27T01:31:53.354Z,75.29
2023-02-27T01:32:53.241Z,74.90
2023-02-27T01:33:53.237Z,75.63
2023-02-27T01:34:53.242Z,75.43
2023-02-27T01:35:53.243Z,75.32
2023-02-27T01:36:53.222Z,75.56
2023-02-27T01:37:53.202Z,75.32
2023-02-27T01:38:53.208Z,75.21
2023-02-27T01:39:53.216Z,75.21
2023-02-27T01:40:53.212Z,75.11
2023-02-27T01:41:53.194Z,75.18
2023-02-27T01:42:53.176Z,75.11
2023-02-27T01:43:53.182Z,75.21
2023-02-27T01:44:53.163Z,75.21
2023-02-27T01:45:53.274Z,75.70
2023-02-27T01:46:53.186Z,75.21
2023-02-27T01:47:53.174Z,74.80
2023-02-27T01:48:53.145Z,75.49
2023-02-27T01:49:53.206Z,75.32
2023-02-27T01:50:53.171Z,75.21
2023-02-27T01:51:53.113Z,75.43
2023-02-27T01:52:53.156Z,76.16
2023-02-27T01:53:53.134Z,76.16
2023-02-27T01:54:53.121Z,76.37
2023-02-27T01:55:53.107Z,76.61
2023-02-27T01:56:53.144Z,77.14
2023-02-27T01:57:53.085Z,77.03
2023-02-27T01:58:53.094Z,77.31
2023-02-27T01:59:53.090Z,76.72
2023-02-27T02:00:53.082Z,76.61
2023-02-27T02:01:53.113Z,76.57
2023-02-27T02:02:53.059Z,76.57
2023-02-27T02:03:53.129Z,76.16
2023-02-27T02:04:53.056Z,76.16
2023-02-27T02:05:53.043Z,76.37
2023-02-27T02:06:53.063Z,75.95
2023-02-27T02:07:53.093Z,75.84
2023-02-27T02:08:53.068Z,76.93
2023-02-27T02:09:53.046Z,76.75
2023-02-27T02:10:53.054Z,77.14
2023-02-27T02:11:53.040Z,77.24
2023-02-27T02:12:53.039Z,77.24
2023-02-27T02:13:53.001Z,77.34
2023-02-27T02:14:52.995Z,77.34
2023-02-27T02:15:52.988Z,77.24
2023-02-27T02:16:53.052Z,77.24
2023-02-27T02:17:53.005Z,77.03
2023-02-27T02:18:53.001Z,77.28
2023-02-27T02:19:52.962Z,77.34
2023-02-27T02:20:52.953Z,76.82
2023-02-27T02:21:52.934Z,77.14
2023-02-27T02:22:53.009Z,77.56
2023-02-27T02:23:53.017Z,77.24
2023-02-27T02:24:52.939Z,77.45
2023-02-27T02:25:52.951Z,77.24
2023-02-27T02:26:52.928Z,77.24
2023-02-27T02:27:52.965Z,77.38
2023-02-27T02:28:52.961Z,77.48
2023-02-27T02:29:52.944Z,77.17
2023-02-27T02:30:53.020Z,77.34
2023-02-27T02:31:53.008Z,77.28
2023-02-27T02:32:52.910Z,77.07
2023-02-27T02:33:52.912Z,77.59
2023-02-27T02:34:52.877Z,77.28
2023-02-27T02:35:52.890Z,76.96
2023-02-27T02:36:52.898Z,77.70
2023-02-27T02:37:52.956Z,77.59
2023-02-27T02:38:52.915Z,78.96
2023-02-27T02:39:52.875Z,78.53
2023-02-27T02:40:52.846Z,78.53
2023-02-27T02:41:52.885Z,78.96
2023-02-27T02:42:53.438Z,78.64
2023-02-27T02:43:53.871Z,78.43
2023-02-27T02:44:52.856Z,77.91
2023-02-27T02:45:52.890Z,78.74
2023-02-27T02:46:52.845Z,78.53
2023-02-27T02:47:52.809Z,78.74
2023-02-27T02:48:52.819Z,79.30
2023-02-27T02:49:52.837Z,79.20
2023-02-27T02:50:52.820Z,79.83
2023-02-27T02:51:52.793Z,79.20
2023-02-27T02:52:52.796Z,79.58
2023-02-27T02:53:52.797Z,78.74
2023-02-27T02:54:52.781Z,78.64
2023-02-27T02:55:52.759Z,78.85
2023-02-27T02:56:52.754Z,78.64
2023-02-27T02:57:52.758Z,78.85
2023-02-27T02:58:52.746Z,78.01
2023-02-27T02:59:52.778Z,78.01
2023-02-27T03:00:52.767Z,77.70
2023-02-27T03:01:52.788Z,77.59
2023-02-27T03:02:52.738Z,78.11
2023-02-27T03:03:52.735Z,78.85
2023-02-27T03:04:52.752Z,78.74
2023-02-27T03:05:52.733Z,79.30
2023-02-27T03:06:52.700Z,79.72
2023-02-27T03:07:52.758Z,79.20
2023-02-27T03:08:52.693Z,79.83
2023-02-27T03:09:52.746Z,79.38
2023-02-27T03:10:52.700Z,79.30
2023-02-27T03:11:52.712Z,78.99
2023-02-27T03:12:52.699Z,79.34
2023-02-27T03:13:52.673Z,79.55
2023-02-27T03:14:52.731Z,79.86
2023-02-27T03:15:52.714Z,79.86
2023-02-27T03:16:52.753Z,79.34
2023-02-27T03:17:52.655Z,79.66
2023-02-27T03:18:52.659Z,79.66
2023-02-27T03:19:52.651Z,79.76
2023-02-27T03:20:52.686Z,79.76
2023-02-27T03:21:52.631Z,79.41
2023-02-27T03:22:52.630Z,79.55
2023-02-27T03:23:52.660Z,79.97
2023-02-27T03:24:52.627Z,80.39
2023-02-27T03:25:52.631Z,80.74
2023-02-27T03:26:52.637Z,80.71
2023-02-27T03:27:52.598Z,81.37
2023-02-27T03:28:52.594Z,81.58
2023-02-27T03:29:52.617Z,81.05
2023-02-27T03:30:52.692Z,81.83
2023-02-27T03:31:52.685Z,82.35
2023-02-27T03:32:52.556Z,82.78
2023-02-27T03:33:52.596Z,83.23
2023-02-27T03:34:52.593Z,82.71
2023-02-27T03:35:52.604Z,83.40
2023-02-27T03:36:52.545Z,83.34
2023-02-27T03:37:52.574Z,83.76
2023-02-27T03:38:52.554Z,83.76
2023-02-27T03:39:52.545Z,83.51
2023-02-27T03:40:52.566Z,83.09
2023-02-27T03:41:52.560Z,83.20
2023-02-27T03:42:52.567Z,83.54
2023-02-27T03:43:52.561Z,83.13
2023-02-27T03:44:52.571Z,83.51
2023-02-27T03:45:53.508Z,83.54
2023-02-27T03:46:52.525Z,83.34
2023-02-27T03:47:52.512Z,84.01
2023-02-27T03:48:52.492Z,84.22
2023-02-27T03:49:52.468Z,85.16
2023-02-27T03:50:52.488Z,84.64
2023-02-27T03:51:52.513Z,84.95
2023-02-27T03:52:52.465Z,84.95
2023-02-27T03:53:52.478Z,84.84
2023-02-27T03:54:52.473Z,84.11
2023-02-27T03:55:52.465Z,84.01
2023-02-27T03:56:52.434Z,84.53
2023-02-27T03:57:52.471Z,84.08
2023-02-27T03:58:52.492Z,83.97
2023-02-27T03:59:52.451Z,83.02
2023-02-27T04:00:52.416Z,82.92
2023-02-27T04:01:52.482Z,83.48
2023-02-27T04:02:52.488Z,83.54
2023-02-27T04:03:52.431Z,83.27
2023-02-27T04:04:52.391Z,84.22
2023-02-27T04:05:52.415Z,84.15
2023-02-27T04:06:52.417Z,84.42
2023-02-27T04:07:52.405Z,84.42
2023-02-27T04:08:52.386Z,83.90
2023-02-27T04:09:52.401Z,83.80
2023-02-27T04:10:52.373Z,84.42
2023-02-27T04:11:52.368Z,84.01
2023-02-27T04:12:52.394Z,84.32
2023-02-27T04:13:52.418Z,84.57
2023-02-27T04:14:52.430Z,84.99
2023-02-27T04:15:52.463Z,85.52
2023-02-27T04:16:52.317Z,85.41
2023-02-27T04:17:52.338Z,85.10
2023-02-27T04:18:52.343Z,85.52
2023-02-27T04:19:52.304Z,85.41
2023-02-27T04:20:52.350Z,86.04
2023-02-27T04:21:52.356Z,85.41
2023-02-27T04:22:52.324Z,85.83
2023-02-27T04:23:52.324Z,85.31
2023-02-27T04:24:52.285Z,85.52
2023-02-27T04:25:52.317Z,85.31
2023-02-27T04:26:52.299Z,85.62
2023-02-27T04:27:52.311Z,85.31
2023-02-27T04:28:52.282Z,85.31
2023-02-27T04:29:52.311Z,84.95
2023-02-27T04:30:52.307Z,84.25
2023-02-27T04:31:52.385Z,84.99
2023-02-27T04:32:52.284Z,84.47
2023-02-27T04:33:52.250Z,85.24
2023-02-27T04:34:52.274Z,86.19
2023-02-27T04:35:52.266Z,87.38
2023-02-27T04:36:52.236Z,86.82
2023-02-27T04:37:52.258Z,86.68
2023-02-27T04:38:52.218Z,86.08
2023-02-27T04:39:52.240Z,86.40
2023-02-27T04:40:52.236Z,86.19
2023-02-27T04:41:52.259Z,86.22
2023-02-27T04:42:52.231Z,86.71
2023-02-27T04:43:52.200Z,86.61
2023-02-27T04:44:52.187Z,86.65
2023-02-27T04:45:52.218Z,87.13
2023-02-27T04:46:52.215Z,86.29
2023-02-27T04:47:52.186Z,86.61
2023-02-27T04:48:52.189Z,86.40
2023-02-27T04:49:52.152Z,85.94
2023-02-27T04:50:52.184Z,85.52
2023-02-27T04:51:52.190Z,85.77
2023-02-27T04:52:52.179Z,85.52
2023-02-27T04:53:52.168Z,85.62
2023-02-27T04:54:52.128Z,85.35
2023-02-27T04:55:52.142Z,85.55
2023-02-27T04:56:52.204Z,85.66
2023-02-27T04:57:52.167Z,85.87
2023-02-27T04:58:52.131Z,85.87
2023-02-27T04:59:53.127Z,85.35
2023-02-27T05:00:52.103Z,85.66
2023-02-27T05:01:52.221Z,85.31
2023-02-27T05:02:52.247Z,84.99
2023-02-27T05:03:52.117Z,84.78
2023-02-27T05:04:52.098Z,84.11
2023-02-27T05:05:52.087Z,84.36
2023-02-27T05:06:52.107Z,84.47
2023-02-27T05:07:52.075Z,84.15
2023-02-27T05:08:52.086Z,84.15
2023-02-27T05:09:52.069Z,84.67
2023-02-27T05:10:52.160Z,84.67
2023-02-27T05:11:52.105Z,84.67
2023-02-27T05:12:52.080Z,84.25
2023-02-27T05:13:52.054Z,84.67
2023-02-27T05:14:52.055Z,84.25
2023-02-27T05:15:52.084Z,84.42
2023-02-27T05:16:52.059Z,84.32
2023-02-27T05:17:52.081Z,84.22
2023-02-27T05:18:52.049Z,84.53
2023-02-27T05:19:52.016Z,84.64
2023-02-27T05:20:52.014Z,84.64
2023-02-27T05:21:52.015Z,84.32
2023-02-27T05:22:52.029Z,84.22
2023-02-27T05:23:52.020Z,85.03
2023-02-27T05:24:51.999Z,84.92
2023-02-27T05:25:51.984Z,85.62
2023-02-27T05:26:51.965Z,85.52
2023-02-27T05:27:51.970Z,84.57
2023-02-27T05:28:51.984Z,84.25
2023-02-27T05:29:51.948Z,84.67
2023-02-27T05:30:51.949Z,84.57
2023-02-27T05:31:52.085Z,84.11
2023-02-27T05:32:51.943Z,84.01
2023-02-27T05:33:52.000Z,83.48
2023-02-27T05:34:51.967Z,83.27
2023-02-27T05:35:51.946Z,83.06
2023-02-27T05:36:51.913Z,83.06
2023-02-27T05:37:51.915Z,83.69
2023-02-27T05:38:51.936Z,83.94
2023-02-27T05:39:51.957Z,84.01
2023-02-27T05:40:51.906Z,84.05
2023-02-27T05:41:51.901Z,84.11
2023-02-27T05:42:51.857Z,84.05
2023-02-27T05:43:51.898Z,84.15
2023-02-27T05:44:51.886Z,84.05
2023-02-27T05:45:51.931Z,84.05
2023-02-27T05:46:51.877Z,84.25
2023-02-27T05:47:51.836Z,84.05
2023-02-27T05:48:51.884Z,84.42
2023-02-27T05:49:51.951Z,84.01
2023-02-27T05:50:51.872Z,83.27
2023-02-27T05:51:51.847Z,84.01
2023-02-27T05:52:51.864Z,83.80
2023-02-27T05:53:51.860Z,83.69
2023-02-27T05:54:51.922Z,83.48
2023-02-27T05:55:51.872Z,83.17
2023-02-27T05:56:51.796Z,82.95
2023-02-27T05:57:51.804Z,83.48
2023-02-27T05:58:51.789Z,83.69
2023-02-27T05:59:51.809Z,83.41
2023-02-27T06:00:51.822Z,84.22
2023-02-27T06:01:51.876Z,84.01
2023-02-27T06:02:51.780Z,84.42
2023-02-27T06:03:51.803Z,84.78
2023-02-27T06:04:51.783Z,84.11
2023-02-27T06:05:51.782Z,84.53
2023-02-27T06:06:51.771Z,84.74
2023-02-27T06:07:51.751Z,84.28
2023-02-27T06:08:51.771Z,83.59
2023-02-27T06:09:51.778Z,83.94
2023-02-27T06:10:51.753Z,84.82
2023-02-27T06:11:51.784Z,86.33
2023-02-27T06:12:51.714Z,86.90
2023-02-27T06:13:51.741Z,87.42
2023-02-27T06:14:51.945Z,87.49
2023-02-27T06:15:51.793Z,87.49
2023-02-27T06:16:51.858Z,87.07
2023-02-27T06:17:51.683Z,86.54
2023-02-27T06:18:51.723Z,87.21
2023-02-27T06:19:51.694Z,86.33
2023-02-27T06:20:51.756Z,87.28
2023-02-27T06:21:51.768Z,87.28
2023-02-27T06:22:51.724Z,86.33
2023-02-27T06:23:51.687Z,86.12
2023-02-27T06:24:51.648Z,85.77
2023-02-27T06:25:51.660Z,85.77
2023-02-27T06:26:51.668Z,85.55
2023-02-27T06:27:51.680Z,85.13
2023-02-27T06:28:52.635Z,84.67
2023-02-27T06:29:51.651Z,84.25
2023-02-27T06:30:51.676Z,84.19
2023-02-27T06:31:51.664Z,85.35
2023-02-27T06:32:51.640Z,85.66
2023-02-27T06:33:51.609Z,85.60
2023-02-27T06:34:51.627Z,86.12
2023-02-27T06:35:51.770Z,86.44
2023-02-27T06:36:51.630Z,86.33
2023-02-27T06:37:51.633Z,86.12
2023-02-27T06:38:51.563Z,86.76
2023-02-27T06:39:51.653Z,87.00
2023-02-27T06:40:51.543Z,87.28
2023-02-27T06:41:51.607Z,87.21
2023-02-27T06:42:51.580Z,87.18
2023-02-27T06:43:51.548Z,88.06
2023-02-27T06:44:51.547Z,87.85
2023-02-27T06:45:51.557Z,88.48
2023-02-27T06:46:51.522Z,87.70
2023-02-27T06:47:51.572Z,88.02
2023-02-27T06:48:51.585Z,87.87
2023-02-27T06:49:51.557Z,86.82
2023-02-27T06:50:51.498Z,86.71
2023-02-27T06:51:52.526Z,85.97
2023-02-27T06:52:51.529Z,86.08
2023-02-27T06:53:51.532Z,86.29
2023-02-27T06:54:51.502Z,86.36
2023-02-27T06:55:51.501Z,86.04
2023-02-27T06:56:51.493Z,85.94
2023-02-27T06:57:51.525Z,86.46
2023-02-27T06:58:51.471Z,85.94
2023-02-27T06:59:51.488Z,85.90
2023-02-27T07:00:51.502Z,85.02
2023-02-27T07:01:51.458Z,84.03
2023-02-27T07:02:51.448Z,82.63
2023-02-27T07:03:51.450Z,82.98
2023-02-27T07:04:51.582Z,82.56
2023-02-27T07:05:51.455Z,83.26
2023-02-27T07:07:32.529Z,82.39
2023-02-27T07:07:52.443Z,81.12
2023-02-27T07:08:54.216Z,81.12
2023-02-27T07:09:52.408Z,81.51
2023-02-27T07:10:51.419Z,80.60
2023-02-27T07:11:51.407Z,79.30
2023-02-27T07:12:51.401Z,78.39
2023-02-27T07:13:51.416Z,76.89
2023-02-27T07:14:51.421Z,75.67
2023-02-27T07:15:51.405Z,74.77
2023-02-27T07:16:51.381Z,72.78
2023-02-27T07:17:51.370Z,72.13
2023-02-27T07:18:51.365Z,71.29
2023-02-27T07:19:51.406Z,71.46
2023-02-27T07:20:51.385Z,73.86
2023-02-27T07:21:51.370Z,73.86
2023-02-27T07:22:51.411Z,73.72
2023-02-27T07:23:51.331Z,73.27
2023-02-27T07:24:51.356Z,71.98
2023-02-27T07:25:51.348Z,71.75
2023-02-27T07:26:51.308Z,69.73
2023-02-27T07:27:51.307Z,70.01
2023-02-27T07:28:51.320Z,69.87
2023-02-27T07:29:51.311Z,68.80
2023-02-27T07:30:51.408Z,67.52
2023-02-27T07:31:51.305Z,67.32
2023-02-27T07:32:51.249Z,67.18
2023-02-27T07:33:51.282Z,65.83
2023-02-27T07:34:51.256Z,66.24
2023-02-27T07:35:51.313Z,65.99
2023-02-27T07:36:51.289Z,67.93
2023-02-27T07:37:51.256Z,69.35
2023-02-27T07:38:51.228Z,70.11
2023-02-27T07:39:51.221Z,71.50
2023-02-27T07:40:51.251Z,71.98
2023-02-27T07:41:51.197Z,71.50
2023-02-27T07:42:53.052Z,73.37
2023-02-27T07:43:52.217Z,74.18
2023-02-27T07:44:51.197Z,74.21
2023-02-27T07:45:51.216Z,74.63
2023-02-27T07:46:51.238Z,74.84
2023-02-27T07:47:51.181Z,74.07
2023-02-27T07:48:51.158Z,75.01
2023-02-27T07:49:51.257Z,74.49
2023-02-27T07:50:51.198Z,75.04
2023-02-27T07:51:51.148Z,74.18
2023-02-27T07:52:51.161Z,74.24
2023-02-27T07:53:51.156Z,74.11
2023-02-27T07:54:51.138Z,73.17
2023-02-27T07:55:51.113Z,73.55
2023-02-27T07:56:51.162Z,71.26
2023-02-27T07:57:51.127Z,71.22
2023-02-27T07:58:51.121Z,70.28
2023-02-27T07:59:51.105Z,71.60
2023-02-27T08:00:51.119Z,71.36
2023-02-27T08:01:51.160Z,71.47
2023-02-27T08:02:51.163Z,71.22
2023-02-27T08:03:51.078Z,71.01
2023-02-27T08:04:51.119Z,70.32
2023-02-27T08:05:51.072Z,70.42
2023-02-27T08:06:51.097Z,70.39
2023-02-27T08:07:51.041Z,70.70
2023-02-27T08:08:51.053Z,69.63
2023-02-27T08:09:51.031Z,69.27
2023-02-27T08:10:51.015Z,70.42
2023-02-27T08:11:51.110Z,71.22
2023-02-27T08:12:51.059Z,69.87
2023-02-27T08:14:06.414Z,70.50
2023-02-27T08:14:53.055Z,70.04
2023-02-27T08:15:50.997Z,70.15
2023-02-27T08:16:51.016Z,68.17
2023-02-27T08:17:50.982Z,70.00
2023-02-27T08:18:50.965Z,69.87
2023-02-27T08:19:50.984Z,69.73
2023-02-27T08:20:50.949Z,69.73
2023-02-27T08:21:50.966Z,69.73
2023-02-27T08:22:51.061Z,70.56
2023-02-27T08:23:50.967Z,69.49
2023-02-27T08:24:51.020Z,67.90
2023-02-27T08:25:51.929Z,68.66
2023-02-27T08:26:50.960Z,68.73
2023-02-27T08:27:50.949Z,67.17
2023-02-27T08:28:50.922Z,67.69
2023-02-27T08:29:50.957Z,66.93
2023-02-27T08:30:50.910Z,66.38
2023-02-27T08:31:51.088Z,65.89
2023-02-27T08:32:50.907Z,66.51
2023-02-27T08:33:58.030Z,65.03
2023-02-27T08:34:52.861Z,65.23
2023-02-27T08:35:50.942Z,65.44
2023-02-27T08:36:50.859Z,65.75
2023-02-27T08:37:50.884Z,65.20
2023-02-27T08:38:50.832Z,65.20
2023-02-27T08:39:50.875Z,64.24
2023-02-27T08:40:50.835Z,64.52
2023-02-27T08:41:50.828Z,64.06
2023-02-27T08:42:50.853Z,65.62
2023-02-27T08:43:50.820Z,62.81
2023-02-27T08:44:50.791Z,64.43
2023-02-27T08:45:50.835Z,64.64
2023-02-27T08:46:50.791Z,65.03
2023-02-27T08:47:50.805Z,63.36
2023-02-27T08:48:50.818Z,63.43
2023-02-27T08:49:50.805Z,62.60
2023-02-27T08:50:50.784Z,63.02
2023-02-27T08:51:50.761Z,64.37
2023-02-27T08:52:50.759Z,63.98
2023-02-27T08:53:50.744Z,64.72
2023-02-27T08:54:50.764Z,65.34
2023-02-27T08:55:50.728Z,64.48
2023-02-27T08:56:50.746Z,62.22
2023-02-27T08:57:50.719Z,63.75
2023-02-27T08:58:50.747Z,63.93
2023-02-27T08:59:50.840Z,62.92
2023-02-27T09:00:50.768Z,63.23
2023-02-27T09:01:50.695Z,63.23
2023-02-27T09:02:50.725Z,62.81
2023-02-27T09:03:50.710Z,61.85
2023-02-27T09:04:50.666Z,61.95
2023-02-27T09:05:50.708Z,62.88
2023-02-27T09:06:50.679Z,64.14
2023-02-27T09:07:50.690Z,62.76
2023-02-27T09:08:50.705Z,63.17
2023-02-27T09:09:50.631Z,61.33
2023-02-27T09:10:50.644Z,63.51
2023-02-27T09:11:50.691Z,63.70
2023-02-27T09:12:50.654Z,63.43
2023-02-27T09:13:50.633Z,62.47
2023-02-27T09:14:50.629Z,63.82
2023-02-27T09:15:50.615Z,63.69
2023-02-27T09:16:50.673Z,64.52
2023-02-27T09:17:50.619Z,62.78
2023-02-27T09:18:50.621Z,62.16
2023-02-27T09:19:50.680Z,63.46
2023-02-27T09:20:50.628Z,65.03
2023-02-27T09:21:50.585Z,64.40
2023-02-27T09:22:50.587Z,64.48
2023-02-27T09:23:50.576Z,65.20
2023-02-27T09:24:50.573Z,63.75
2023-02-27T09:25:50.554Z,64.58
2023-02-27T09:26:51.029Z,63.60
2023-02-27T09:27:50.529Z,64.87
2023-02-27T09:28:50.552Z,64.82
2023-02-27T09:29:50.517Z,65.78
2023-02-27T09:30:50.606Z,65.00
2023-02-27T09:31:50.659Z,65.04
2023-02-27T09:32:50.627Z,64.31
2023-02-27T09:33:50.530Z,64.65
2023-02-27T09:34:50.512Z,63.96
2023-02-27T09:35:50.513Z,63.69
2023-02-27T09:36:50.517Z,63.94
2023-02-27T09:37:51.542Z,61.22
2023-02-27T09:38:50.485Z,62.10
2023-02-27T09:39:50.465Z,62.28
2023-02-27T09:40:50.470Z,61.66
2023-02-27T09:41:50.478Z,61.66
2023-02-27T09:42:50.518Z,61.45
2023-02-27T09:43:50.442Z,61.76
2023-02-27T09:44:50.474Z,62.65
2023-02-27T09:45:50.443Z,63.41
2023-02-27T09:46:50.462Z,63.88
2023-02-27T09:47:50.424Z,66.45
2023-02-27T09:48:50.422Z,67.05
2023-02-27T09:49:50.477Z,65.14
2023-02-27T09:50:50.451Z,64.59
2023-02-27T09:51:52.427Z,63.17
2023-02-27T09:52:50.419Z,62.80
2023-02-27T09:53:50.407Z,63.60
2023-02-27T09:54:50.413Z,61.11
2023-02-27T09:55:50.355Z,62.05
2023-02-27T09:56:50.381Z,61.87
2023-02-27T09:57:50.391Z,62.67
2023-02-27T09:58:50.402Z,62.02
2023-02-27T09:59:51.944Z,62.98
2023-02-27T10:00:50.340Z,62.49
2023-02-27T10:01:50.335Z,61.63
2023-02-27T10:02:50.405Z,62.88
2023-02-27T10:03:50.350Z,62.64
2023-02-27T10:04:50.322Z,61.81
2023-02-27T10:05:50.308Z,61.55
2023-02-27T10:06:50.323Z,64.00
2023-02-27T10:07:50.726Z,63.56
2023-02-27T10:08:50.317Z,62.83
2023-02-27T10:09:50.290Z,61.74
2023-02-27T10:10:50.319Z,60.15
2023-02-27T10:11:50.265Z,61.81
2023-02-27T10:12:50.264Z,60.53
2023-02-27T10:13:50.374Z,59.78
2023-02-27T10:14:50.269Z,58.67
2023-02-27T10:15:50.273Z,60.25
2023-02-27T10:16:50.241Z,60.85
2023-02-27T10:17:50.253Z,61.03
2023-02-27T10:18:50.248Z,60.41
2023-02-27T10:19:50.232Z,60.30
2023-02-27T10:20:50.215Z,60.89
2023-02-27T10:21:50.215Z,58.75
2023-02-27T10:22:50.229Z,60.72
2023-02-27T10:23:50.223Z,59.66
2023-02-27T10:24:50.196Z,61.62
2023-02-27T10:25:50.184Z,59.77
2023-02-27T10:26:50.235Z,60.08
2023-02-27T10:27:50.216Z,60.39
2023-02-27T10:28:50.164Z,61.08
2023-02-27T10:29:50.198Z,61.32
2023-02-27T10:30:50.247Z,61.24
2023-02-27T10:31:50.237Z,61.87
2023-02-27T10:32:50.194Z,63.14
2023-02-27T10:33:50.169Z,63.73
2023-02-27T10:34:50.139Z,64.54
2023-02-27T10:35:50.215Z,61.53
2023-02-27T10:36:50.121Z,61.76
2023-02-27T10:37:50.110Z,62.67
2023-02-27T10:38:50.095Z,63.78
2023-02-27T10:39:50.138Z,64.65
2023-02-27T10:40:50.101Z,62.02
2023-02-27T10:41:50.131Z,61.71
2023-02-27T10:42:50.077Z,61.63
2023-02-27T10:43:50.086Z,62.02
2023-02-27T10:44:50.105Z,64.65
2023-02-27T10:45:50.140Z,61.96
2023-02-27T10:46:52.039Z,61.24
2023-02-27T10:47:51.072Z,61.83
2023-02-27T10:48:50.048Z,61.21
2023-02-27T10:49:50.031Z,61.07
2023-02-27T10:50:50.055Z,60.17
2023-02-27T10:51:50.012Z,63.51
2023-02-27T10:52:50.073Z,60.58
2023-02-27T10:53:50.026Z,61.31
2023-02-27T10:54:50.008Z,58.90
2023-02-27T10:55:50.047Z,58.18
2023-02-27T10:56:50.000Z,59.21
2023-02-27T10:57:49.989Z,58.02
2023-02-27T10:58:49.992Z,57.97
2023-02-27T10:59:49.989Z,59.84
2023-02-27T11:00:50.007Z,61.71
2023-02-27T11:01:50.091Z,59.45
2023-02-27T11:02:50.002Z,59.56
2023-02-27T11:03:50.010Z,60.60
2023-02-27T11:04:49.991Z,61.40
2023-02-27T11:05:50.007Z,61.16
2023-02-27T11:06:49.972Z,61.55
2023-02-27T11:07:49.940Z,60.89
2023-02-27T11:08:50.345Z,59.42
2023-02-27T11:09:50.942Z,60.25
2023-02-27T11:10:49.981Z,60.70
2023-02-27T11:11:49.928Z,61.32
2023-02-27T11:12:49.952Z,60.77
2023-02-27T11:13:49.896Z,60.82
2023-02-27T11:14:49.946Z,58.05
2023-02-27T11:15:49.962Z,60.05
2023-02-27T11:16:49.921Z,61.29
2023-02-27T11:17:49.950Z,60.33
2023-02-27T11:18:49.914Z,59.97
2023-02-27T11:19:49.895Z,61.84
2023-02-27T11:20:49.908Z,60.67
2023-02-27T11:21:49.909Z,60.52
2023-02-27T11:22:49.894Z,61.07
2023-02-27T11:23:49.919Z,61.32
2023-02-27T11:24:49.902Z,61.84
2023-02-27T11:25:49.856Z,61.08
2023-02-27T11:26:49.881Z,59.99
2023-02-27T11:27:49.846Z,60.58
2023-02-27T11:28:49.851Z,60.79
2023-02-27T11:29:49.838Z,61.38
2023-02-27T11:30:49.887Z,60.14
2023-02-27T11:31:49.970Z,57.64
2023-02-27T11:32:49.859Z,59.11
2023-02-27T11:33:49.918Z,58.83
2023-02-27T11:34:49.815Z,60.91
2023-02-27T11:35:49.867Z,60.36
2023-02-27T11:36:50.873Z,61.47
2023-02-27T11:37:49.861Z,59.06
2023-02-27T11:38:49.817Z,59.58
2023-02-27T11:39:49.796Z,58.64
2023-02-27T11:40:49.789Z,59.75
2023-02-27T11:41:49.766Z,58.69
2023-02-27T11:42:49.808Z,59.42
2023-02-27T11:43:49.789Z,59.34
2023-02-27T11:44:51.352Z,59.03
2023-02-27T11:46:04.428Z,58.98
2023-02-27T11:46:50.856Z,58.70
2023-02-27T11:47:49.774Z,59.94
2023-02-27T11:48:49.758Z,59.09
2023-02-27T11:49:49.730Z,58.64
2023-02-27T11:50:49.731Z,57.92
2023-02-27T11:51:49.724Z,57.40
2023-02-27T11:52:49.734Z,59.42
2023-02-27T11:53:49.749Z,58.12
2023-02-27T11:54:49.709Z,56.08
2023-02-27T11:55:49.819Z,57.79
2023-02-27T11:56:49.695Z,57.56
2023-02-27T11:57:49.717Z,55.98
2023-02-27T11:58:49.702Z,56.81
2023-02-27T11:59:49.733Z,55.38
2023-02-27T12:00:49.691Z,56.03
2023-02-27T12:01:49.688Z,57.50
2023-02-27T12:02:49.740Z,57.81
2023-02-27T12:03:49.716Z,58.54
2023-02-27T12:04:49.764Z,58.48
2023-02-27T12:05:49.714Z,57.35
2023-02-27T12:06:49.690Z,57.56
2023-02-27T12:07:49.664Z,57.63
2023-02-27T12:08:49.675Z,55.93
2023-02-27T12:09:49.642Z,55.07
2023-02-27T12:10:49.677Z,53.16
2023-02-27T12:11:49.663Z,52.67
2023-02-27T12:12:49.665Z,53.03
2023-02-27T12:13:49.671Z,55.05
2023-02-27T12:14:49.744Z,56.16
2023-02-27T12:15:49.655Z,56.60
2023-02-27T12:16:49.669Z,56.00
2023-02-27T12:17:49.616Z,58.70
2023-02-27T12:18:49.640Z,59.01
2023-02-27T12:19:49.652Z,58.07
2023-02-27T12:20:49.636Z,58.05
2023-02-27T12:21:49.781Z,57.66
2023-02-27T12:22:50.581Z,58.28
2023-02-27T12:23:49.607Z,58.80
2023-02-27T12:24:49.598Z,57.97
2023-02-27T12:25:49.590Z,58.07
2023-02-27T12:26:49.613Z,58.00
2023-02-27T12:27:49.556Z,59.04
2023-02-27T12:28:49.640Z,58.67
2023-02-27T12:29:49.600Z,57.43
2023-02-27T12:30:49.542Z,57.56
2023-02-27T12:31:49.701Z,58.88
2023-02-27T12:32:50.354Z,58.05
2023-02-27T12:33:50.526Z,57.48
2023-02-27T12:34:49.534Z,57.66
2023-02-27T12:35:49.611Z,57.63
2023-02-27T12:36:49.503Z,58.67
2023-02-27T12:37:49.517Z,56.34
2023-02-27T12:38:49.507Z,55.30
2023-02-27T12:39:49.487Z,54.91
2023-02-27T12:40:49.508Z,52.64
2023-02-27T12:41:49.535Z,53.39
2023-02-27T12:42:49.491Z,51.94
2023-02-27T12:43:49.475Z,52.59
2023-02-27T12:44:49.465Z,53.59
2023-02-27T12:45:49.521Z,54.76
2023-02-27T12:46:49.517Z,54.74
2023-02-27T12:47:49.461Z,54.09
2023-02-27T12:48:49.436Z,53.59
2023-02-27T12:49:49.448Z,55.22
2023-02-27T12:50:49.458Z,54.61
2023-02-27T12:51:49.489Z,53.23
2023-02-27T12:52:49.427Z,54.84